createdAt,value
2018-03-16T00:01:37.932Z,36.63
2018-03-16T00:04:04.186Z,35.43
2018-03-16T00:06:30.601Z,32.53
2018-03-16T00:08:56.842Z,39.50
2018-03-16T00:11:23.065Z,38.20
2018-03-16T00:13:49.365Z,33.57
2018-03-16T00:16:15.624Z,36.60
2018-03-16T00:18:41.957Z,36.83
2018-03-16T00:21:08.232Z,34.50
2018-03-16T00:23:34.468Z,39.53
2018-03-16T00:26:00.921Z,37.20
2018-03-16T00:28:27.152Z,36.87
2018-03-16T00:30:53.407Z,34.23
2018-03-16T00:33:19.658Z,34.33
2018-03-16T00:35:45.906Z,37.97
2018-03-16T00:38:12.372Z,37.63
2018-03-16T00:40:38.633Z,34.30
2018-03-16T00:43:04.857Z,39.60
2018-03-16T00:45:31.253Z,34.90
2018-03-16T00:47:57.512Z,33.63
2018-03-16T00:50:23.840Z,38.23
2018-03-16T00:52:50.146Z,35.23
2018-03-16T00:55:16.368Z,38.97
2018-03-16T00:57:42.815Z,34.37
2018-03-16T01:00:09.095Z,34.27
2018-03-16T01:02:35.369Z,32.30
2018-03-16T01:05:01.606Z,33.97
2018-03-16T01:07:27.868Z,35.40
2018-03-16T01:09:54.359Z,36.07
2018-03-16T01:12:20.589Z,35.87
2018-03-16T01:14:46.829Z,37.70
2018-03-16T01:17:13.167Z,35.07
2018-03-16T01:19:39.429Z,36.37
2018-03-16T01:22:05.761Z,33.60
2018-03-16T01:24:32.021Z,37.10
2018-03-16T01:26:58.244Z,36.60
2018-03-16T01:29:24.693Z,35.77
2018-03-16T01:31:50.916Z,35.63
2018-03-16T01:34:17.145Z,35.03
2018-03-16T01:36:43.392Z,39.87
2018-03-16T01:39:09.617Z,34.17
2018-03-16T01:41:35.991Z,35.37
2018-03-16T01:44:02.233Z,36.37
2018-03-16T01:46:28.474Z,36.90
2018-03-16T01:48:54.908Z,36.60
2018-03-16T01:51:21.156Z,35.37
2018-03-16T01:53:47.376Z,41.57
2018-03-16T01:56:13.624Z,35.87
2018-03-16T01:58:39.840Z,39.53
2018-03-16T02:01:06.288Z,37.80
2018-03-16T02:03:32.600Z,35.93
2018-03-16T02:05:58.848Z,36.43
2018-03-16T02:08:25.196Z,34.80
2018-03-16T02:10:51.440Z,38.13
2018-03-16T02:13:17.785Z,32.30
2018-03-16T02:15:44.040Z,35.87
2018-03-16T02:18:10.280Z,39.90
2018-03-16T02:20:36.732Z,39.13
2018-03-16T02:23:03.004Z,37.13
2018-03-16T02:25:29.239Z,34.73
2018-03-16T02:27:55.492Z,33.90
2018-03-16T02:30:21.721Z,40.00
2018-03-16T02:32:48.075Z,39.07
2018-03-16T02:35:14.324Z,39.23
2018-03-16T02:37:40.621Z,36.00
2018-03-16T02:40:06.973Z,34.53
2018-03-16T02:42:33.196Z,36.60
2018-03-16T02:44:59.448Z,35.87
2018-03-16T02:47:25.677Z,36.03
2018-03-16T02:49:51.921Z,40.30
2018-03-16T02:52:18.297Z,39.73
2018-03-16T02:54:44.553Z,39.47
2018-03-16T02:57:10.780Z,33.50
2018-03-16T02:59:38.278Z,33.40
2018-03-16T03:02:04.524Z,38.63
2018-03-16T03:04:31.002Z,37.40
2018-03-16T03:06:57.234Z,35.00
2018-03-16T03:09:23.480Z,41.70
2018-03-16T03:11:49.708Z,36.47
2018-03-16T03:14:15.928Z,37.13
2018-03-16T03:16:42.413Z,28.47
2018-03-16T03:19:08.628Z,36.30
2018-03-16T03:21:34.863Z,37.07
2018-03-16T03:24:01.184Z,39.17
2018-03-16T03:26:27.429Z,37.17
2018-03-16T03:28:53.713Z,37.07
2018-03-16T03:31:19.966Z,33.50
2018-03-16T03:33:46.191Z,34.43
2018-03-16T03:36:12.561Z,34.67
2018-03-16T03:38:38.799Z,33.37
2018-03-16T03:41:05.052Z,31.17
2018-03-16T03:43:31.352Z,36.63
2018-03-16T03:45:57.568Z,39.90
2018-03-16T03:48:23.910Z,33.60
2018-03-16T03:50:50.189Z,34.90
2018-03-16T03:53:16.460Z,35.47
2018-03-16T03:55:42.883Z,34.70
2018-03-16T03:58:09.140Z,37.73
2018-03-16T04:00:35.444Z,36.57
2018-03-16T04:03:01.675Z,35.97
2018-03-16T04:05:27.908Z,41.87
2018-03-16T04:07:54.284Z,37.20
2018-03-16T04:10:20.575Z,43.50
2018-03-16T04:12:46.788Z,36.97
2018-03-16T04:15:13.241Z,40.07
2018-03-16T04:17:39.464Z,37.43
2018-03-16T04:20:05.813Z,43.40
2018-03-16T04:22:32.072Z,39.97
2018-03-16T04:24:58.337Z,39.60
2018-03-16T04:27:24.782Z,39.67
2018-03-16T04:29:51.036Z,34.83
2018-03-16T04:32:17.285Z,43.47
2018-03-16T04:34:43.529Z,34.70
2018-03-16T04:37:09.778Z,39.13
2018-03-16T04:39:36.143Z,45.57
2018-03-16T04:42:02.429Z,39.40
2018-03-16T04:44:28.648Z,42.17
2018-03-16T04:46:55.025Z,41.57
2018-03-16T04:49:21.240Z,46.13
2018-03-16T04:51:47.505Z,41.27
2018-03-16T04:54:13.744Z,46.47
2018-03-16T04:56:39.967Z,44.10
2018-03-16T04:59:06.385Z,46.63
2018-03-16T05:01:32.616Z,48.17
2018-03-16T05:03:58.883Z,49.37
2018-03-16T05:06:25.221Z,49.30
2018-03-16T05:08:51.455Z,45.67
2018-03-16T05:11:17.820Z,47.37
2018-03-16T05:13:44.087Z,49.50
2018-03-16T05:16:10.336Z,52.13
2018-03-16T05:18:36.840Z,46.87
2018-03-16T05:21:03.068Z,49.60
2018-03-16T05:23:29.280Z,57.43
2018-03-16T05:25:55.533Z,55.77
2018-03-16T05:28:21.773Z,46.13
2018-03-16T05:30:48.086Z,49.20
2018-03-16T05:33:14.372Z,50.13
2018-03-16T05:35:40.623Z,53.10
2018-03-16T05:38:07.014Z,53.40
2018-03-16T05:40:33.284Z,51.57
2018-03-16T05:42:59.541Z,55.77
2018-03-16T05:45:25.780Z,58.53
2018-03-16T05:47:52.020Z,52.57
2018-03-16T05:50:18.445Z,58.53
2018-03-16T05:52:44.695Z,58.47
2018-03-16T05:55:10.940Z,59.07
2018-03-16T05:57:37.278Z,53.63
2018-03-16T06:00:03.524Z,58.53
2018-03-16T06:02:29.845Z,59.37
2018-03-16T06:04:56.121Z,54.33
2018-03-16T06:07:22.380Z,58.20
2018-03-16T06:09:48.631Z,55.47
2018-03-16T06:12:14.884Z,56.70
2018-03-16T06:14:41.138Z,59.67
2018-03-16T06:17:07.364Z,62.63
2018-03-16T06:19:33.625Z,54.50
2018-03-16T06:21:59.847Z,60.67
2018-03-16T06:24:26.119Z,77.77
2018-03-16T06:26:52.370Z,74.57
2018-03-16T06:29:18.604Z,63.73
2018-03-16T06:31:44.816Z,59.53
2018-03-16T06:34:11.060Z,64.00
2018-03-16T06:36:37.311Z,56.20
2018-03-16T06:39:03.641Z,56.97
2018-03-16T06:41:29.880Z,58.13
2018-03-16T06:43:56.121Z,69.83
2018-03-16T06:46:22.373Z,62.80
2018-03-16T06:48:48.660Z,55.60
2018-03-16T06:51:14.925Z,65.67
2018-03-16T06:53:41.183Z,62.13
2018-03-16T06:56:07.472Z,60.03
2018-03-16T06:58:33.711Z,57.40
2018-03-16T07:00:59.987Z,55.80
2018-03-16T07:03:26.246Z,60.70
2018-03-16T07:05:52.672Z,62.13
2018-03-16T07:08:18.961Z,57.23
2018-03-16T07:10:45.208Z,57.30
2018-03-16T07:13:11.461Z,53.63
2018-03-16T07:15:37.736Z,56.70
2018-03-16T07:18:04.007Z,55.73
2018-03-16T07:20:30.260Z,58.57
2018-03-16T07:22:56.551Z,53.37
2018-03-16T07:25:22.819Z,54.90
2018-03-16T07:27:49.072Z,52.77
2018-03-16T07:30:15.343Z,57.50
2018-03-16T07:32:41.600Z,61.50
2018-03-16T07:35:07.889Z,53.07
2018-03-16T07:37:34.153Z,58.63
2018-03-16T07:40:00.414Z,54.40
2018-03-16T07:42:26.660Z,53.90
2018-03-16T07:44:52.948Z,49.00
2018-03-16T07:47:19.219Z,51.13
2018-03-16T07:49:45.452Z,50.33
2018-03-16T07:52:11.824Z,53.60
2018-03-16T07:54:38.068Z,48.80
2018-03-16T07:57:04.337Z,45.03
2018-03-16T07:59:30.604Z,44.20
2018-03-16T08:01:56.863Z,47.83
2018-03-16T08:04:23.098Z,42.67
2018-03-16T08:06:49.379Z,52.67
2018-03-16T08:09:15.664Z,43.87
2018-03-16T08:11:41.922Z,42.90
2018-03-16T08:14:08.169Z,41.63
2018-03-16T08:16:34.405Z,35.23
2018-03-16T08:19:00.688Z,41.47
2018-03-16T08:21:26.931Z,41.00
2018-03-16T08:23:53.213Z,36.70
2018-03-16T08:26:19.468Z,47.37
2018-03-16T08:28:45.763Z,42.73
2018-03-16T08:31:12.045Z,38.80
2018-03-16T08:33:38.297Z,50.47
2018-03-16T08:36:04.581Z,39.53
2018-03-16T08:38:30.839Z,38.50
2018-03-16T08:40:57.082Z,39.23
2018-03-16T08:43:23.334Z,31.00
2018-03-16T08:45:49.622Z,35.13
2018-03-16T08:48:16.342Z,29.97
2018-03-16T08:50:42.609Z,29.67
2018-03-16T08:53:08.837Z,27.80
2018-03-16T08:55:35.130Z,27.17
2018-03-16T08:58:01.421Z,24.77
2018-03-16T09:00:27.669Z,24.03
2018-03-16T09:02:53.931Z,19.27
2018-03-16T09:05:20.226Z,24.43
2018-03-16T09:07:46.472Z,22.60
2018-03-16T09:10:12.699Z,20.17
2018-03-16T09:12:38.991Z,20.53
2018-03-16T09:15:05.220Z,19.53
2018-03-16T09:17:31.460Z,18.00
2018-03-16T09:19:57.684Z,18.17
2018-03-16T09:22:23.953Z,22.10
2018-03-16T09:24:50.184Z,16.80
2018-03-16T09:27:16.473Z,15.30
2018-03-16T09:29:42.757Z,15.17
2018-03-16T09:32:08.999Z,18.23
2018-03-16T09:34:35.244Z,15.63
2018-03-16T09:37:01.473Z,14.73
2018-03-16T09:39:27.765Z,13.93
2018-03-16T09:41:54.002Z,14.13
2018-03-16T09:44:20.268Z,12.53
2018-03-16T09:46:46.492Z,18.60
2018-03-16T09:49:12.740Z,15.13
2018-03-16T09:51:38.969Z,30.13
2018-03-16T09:54:05.239Z,29.27
2018-03-16T09:56:31.464Z,11.63
2018-03-16T09:58:57.685Z,13.43
2018-03-16T10:01:23.957Z,11.53
2018-03-16T10:03:50.212Z,13.07
2018-03-16T10:06:16.540Z,14.10
2018-03-16T10:08:42.764Z,13.47
2018-03-16T10:11:09.022Z,12.60
2018-03-16T10:13:35.273Z,14.43
2018-03-16T10:16:01.524Z,12.50
2018-03-16T10:18:27.831Z,12.50
2018-03-16T10:20:54.091Z,12.73
2018-03-16T10:23:20.377Z,16.90
2018-03-16T10:25:46.617Z,15.07
2018-03-16T10:28:13.073Z,12.90
2018-03-16T10:30:39.315Z,11.90
2018-03-16T10:33:05.552Z,11.03
2018-03-16T10:35:31.801Z,13.17
2018-03-16T10:37:58.051Z,15.03
2018-03-16T10:40:24.283Z,14.07
2018-03-16T10:42:50.542Z,12.43
2018-03-16T10:45:16.811Z,13.63
2018-03-16T10:47:43.033Z,12.03
2018-03-16T10:50:09.305Z,10.63
2018-03-16T10:55:08.520Z,28.77
2018-03-16T10:57:34.756Z,11.47
2018-03-16T11:00:00.996Z,11.07
2018-03-16T11:02:33.182Z,9.60
2018-03-16T11:05:05.396Z,10.50
2018-03-16T11:10:29.736Z,10.47
2018-03-16T11:12:55.964Z,10.97
2018-03-16T11:15:22.232Z,12.10
2018-03-16T11:17:48.490Z,10.13
2018-03-16T11:20:14.752Z,13.13
2018-03-16T11:22:40.980Z,12.33
2018-03-16T11:25:07.225Z,11.13
2018-03-16T11:27:33.504Z,10.13
2018-03-16T11:29:59.796Z,12.60
2018-03-16T11:32:26.144Z,10.67
2018-03-16T11:34:52.351Z,13.60
2018-03-16T11:37:18.588Z,10.97
2018-03-16T11:39:44.832Z,11.17
2018-03-16T11:42:11.108Z,11.73
2018-03-16T11:44:43.085Z,10.43
2018-03-16T11:47:09.348Z,10.60
2018-03-16T11:49:35.652Z,11.17
2018-03-16T11:52:01.925Z,22.47
2018-03-16T11:54:28.208Z,11.10
2018-03-16T11:56:54.468Z,9.10
2018-03-16T11:59:20.775Z,11.80
2018-03-16T12:01:46.996Z,10.83
2018-03-16T12:04:13.249Z,13.47
2018-03-16T12:06:39.468Z,13.63
2018-03-16T12:09:05.777Z,11.77
2018-03-16T12:11:32.052Z,11.77
2018-03-16T12:13:58.287Z,10.40
2018-03-16T12:16:24.548Z,11.90
2018-03-16T12:18:50.781Z,7.73
2018-03-16T12:21:17.035Z,8.63
2018-03-16T12:23:43.297Z,11.47
2018-03-16T12:26:09.549Z,10.23
2018-03-16T12:28:49.573Z,10.40
2018-03-16T12:31:02.138Z,7.90
2018-03-16T12:33:28.392Z,9.53
2018-03-16T12:35:54.693Z,8.53
2018-03-16T12:38:20.968Z,8.63
2018-03-16T12:40:47.261Z,10.80
2018-03-16T12:43:13.541Z,8.87
2018-03-16T12:45:39.772Z,9.43
2018-03-16T12:48:06.084Z,9.03
2018-03-16T12:50:32.341Z,11.23
2018-03-16T12:52:58.637Z,9.83
2018-03-16T12:55:24.912Z,8.33
2018-03-16T12:57:51.176Z,9.83
2018-03-16T13:00:17.444Z,8.40
2018-03-16T13:02:43.805Z,8.97
2018-03-16T13:05:10.084Z,8.50
2018-03-16T13:07:36.320Z,10.80
2018-03-16T13:10:02.603Z,12.27
2018-03-16T13:12:28.848Z,10.57
2018-03-16T13:14:55.104Z,11.97
2018-03-16T13:17:21.324Z,11.00
2018-03-16T13:19:47.584Z,12.17
2018-03-16T13:22:13.840Z,12.47
2018-03-16T13:24:40.088Z,12.23
2018-03-16T13:27:06.307Z,15.00
2018-03-16T13:29:32.528Z,13.20
2018-03-16T13:31:58.772Z,15.13
2018-03-16T13:34:25.005Z,13.57
2018-03-16T13:36:51.264Z,15.40
2018-03-16T13:39:17.494Z,13.13
2018-03-16T13:41:43.748Z,15.67
2018-03-16T13:44:09.970Z,15.53
2018-03-16T13:46:36.233Z,17.13
2018-03-16T13:49:02.522Z,15.20
2018-03-16T13:51:28.790Z,14.37
2018-03-16T13:53:55.024Z,17.60
2018-03-16T13:56:21.923Z,20.13
2018-03-16T13:58:48.418Z,12.20
2018-03-16T14:01:14.780Z,19.27
2018-03-16T14:03:41.308Z,15.97
2018-03-16T14:06:07.592Z,18.37
2018-03-16T14:08:33.947Z,16.50
2018-03-16T14:11:00.217Z,15.77
2018-03-16T14:13:26.619Z,14.37
2018-03-16T14:15:52.968Z,19.83
2018-03-16T14:18:20.375Z,14.10
2018-03-16T14:20:46.769Z,18.07
2018-03-16T14:23:13.034Z,18.93
2018-03-16T14:25:39.572Z,19.80
2018-03-16T14:28:05.868Z,16.73
2018-03-16T14:30:32.363Z,15.77
2018-03-16T14:32:58.606Z,18.80
2018-03-16T14:35:25.098Z,17.87
2018-03-16T14:37:51.460Z,17.83
2018-03-16T14:40:17.814Z,20.90
2018-03-16T14:42:44.242Z,18.10
2018-03-16T14:45:10.552Z,15.83
2018-03-16T14:47:37.264Z,17.17
2018-03-16T14:50:06.263Z,17.60
2018-03-16T14:52:32.532Z,15.47
2018-03-16T14:54:58.811Z,16.03
2018-03-16T14:57:25.195Z,14.80
2018-03-16T14:59:51.488Z,12.20
2018-03-16T15:02:17.785Z,13.07
2018-03-16T15:04:44.407Z,14.83
2018-03-16T15:07:10.691Z,15.17
2018-03-16T15:09:36.956Z,12.07
2018-03-16T15:12:03.450Z,10.50
2018-03-16T15:14:29.867Z,9.77
2018-03-16T15:16:56.313Z,12.30
2018-03-16T15:19:22.620Z,14.40
2018-03-16T15:21:49.063Z,11.80
2018-03-16T15:24:15.360Z,11.40
2018-03-16T15:26:48.436Z,14.33
2018-03-16T15:29:15.040Z,12.63
2018-03-16T15:31:41.284Z,11.63
2018-03-16T15:34:07.551Z,10.40
2018-03-16T15:36:33.916Z,13.20
2018-03-16T15:39:00.405Z,12.97
2018-03-16T15:41:26.678Z,12.83
2018-03-16T15:43:53.058Z,10.40
2018-03-16T15:46:19.379Z,10.47
2018-03-16T15:48:45.736Z,12.03
2018-03-16T15:51:12.062Z,12.37
2018-03-16T15:53:38.321Z,11.57
2018-03-16T15:56:04.730Z,12.60
2018-03-16T15:58:30.978Z,12.50
2018-03-16T16:00:57.241Z,13.07
2018-03-16T16:03:23.895Z,12.43
2018-03-16T16:05:50.374Z,13.27
2018-03-16T16:08:16.851Z,14.17
2018-03-16T16:10:43.122Z,14.80
2018-03-16T16:13:09.639Z,13.43
2018-03-16T16:15:35.940Z,15.77
2018-03-16T16:18:02.351Z,14.93
2018-03-16T16:20:28.572Z,14.93
2018-03-16T16:22:54.784Z,15.20
2018-03-16T16:25:21.075Z,19.93
2018-03-16T16:27:47.301Z,15.57
2018-03-16T16:30:13.741Z,16.90
2018-03-16T16:32:40.152Z,18.10
2018-03-16T16:35:06.420Z,14.60
2018-03-16T16:37:32.714Z,15.23
2018-03-16T16:39:58.991Z,16.03
2018-03-16T16:42:25.340Z,14.47
2018-03-16T16:44:51.635Z,21.00
2018-03-16T16:47:18.410Z,14.77
2018-03-16T16:49:44.684Z,15.13
2018-03-16T16:52:11.014Z,16.20
2018-03-16T16:54:37.628Z,14.87
2018-03-16T16:57:03.892Z,14.40
2018-03-16T16:59:30.385Z,13.87
2018-03-16T17:01:56.745Z,17.97
2018-03-16T17:04:23.205Z,20.20
2018-03-16T17:06:49.491Z,15.80
2018-03-16T17:09:16.040Z,16.27
2018-03-16T17:11:42.529Z,14.80
2018-03-16T17:14:08.801Z,22.90
2018-03-16T17:16:35.285Z,17.83
2018-03-16T17:19:01.604Z,18.47
2018-03-16T17:21:27.917Z,16.07
2018-03-16T17:23:54.483Z,15.23
2018-03-16T17:26:20.733Z,18.10
2018-03-16T17:28:46.992Z,20.07
2018-03-16T17:31:13.231Z,17.03
2018-03-16T17:33:39.464Z,15.63
2018-03-16T17:36:05.732Z,17.53
2018-03-16T17:38:32.235Z,14.27
2018-03-16T17:40:58.528Z,15.93
2018-03-16T17:43:24.843Z,17.30
2018-03-16T17:45:51.173Z,17.00
2018-03-16T17:48:17.549Z,16.37
2018-03-16T17:50:43.926Z,15.07
2018-03-16T17:53:10.162Z,17.87
2018-03-16T17:55:36.433Z,17.17
2018-03-16T17:58:02.720Z,14.93
2018-03-16T18:00:29.037Z,19.13
2018-03-16T18:02:55.285Z,16.40
2018-03-16T18:05:21.640Z,15.17
2018-03-16T18:07:47.970Z,14.67
2018-03-16T18:10:14.487Z,15.70
2018-03-16T18:12:40.760Z,14.90
2018-03-16T18:15:07.009Z,15.47
2018-03-16T18:17:34.125Z,17.63
2018-03-16T18:20:00.411Z,15.50
2018-03-16T18:22:26.848Z,15.73
2018-03-16T18:24:53.300Z,15.37
2018-03-16T18:27:19.577Z,16.33
2018-03-16T18:29:46.225Z,14.90
2018-03-16T18:32:12.516Z,17.97
2018-03-16T18:34:38.812Z,17.07
2018-03-16T18:37:05.059Z,16.30
2018-03-16T18:39:32.016Z,17.73
2018-03-16T18:41:58.534Z,16.00
2018-03-16T18:44:24.784Z,17.37
2018-03-16T18:46:51.045Z,15.27
2018-03-16T18:49:17.488Z,13.17
2018-03-16T18:51:43.744Z,16.57
2018-03-16T18:54:10.226Z,16.33
2018-03-16T18:56:37.515Z,19.33
2018-03-16T18:59:03.840Z,15.43
2018-03-16T19:01:30.124Z,19.20
2018-03-16T19:03:56.387Z,19.53
2018-03-16T19:06:22.656Z,18.70
2018-03-16T19:08:48.906Z,16.50
2018-03-16T19:11:15.165Z,14.27
2018-03-16T19:13:41.769Z,16.60
2018-03-16T19:16:08.321Z,14.60
2018-03-16T19:18:34.704Z,13.93
2018-03-16T19:21:01.105Z,17.60
2018-03-16T19:23:27.509Z,18.13
2018-03-16T19:25:53.784Z,17.97
2018-03-16T19:28:20.253Z,17.70
2018-03-16T19:30:46.537Z,17.70
2018-03-16T19:33:12.837Z,15.40
2018-03-16T19:35:39.496Z,21.23
2018-03-16T19:38:05.827Z,16.53
2018-03-16T19:40:32.232Z,18.10
2018-03-16T19:42:58.491Z,15.17
2018-03-16T19:45:24.924Z,16.67
2018-03-16T19:47:51.176Z,15.97
2018-03-16T19:50:17.441Z,17.23
2018-03-16T19:52:44.009Z,16.33
2018-03-16T19:55:10.317Z,16.33
2018-03-16T19:57:36.632Z,17.63
2018-03-16T20:00:02.916Z,14.10
2018-03-16T20:02:29.176Z,17.93
2018-03-16T20:04:55.432Z,14.90
2018-03-16T20:07:21.752Z,19.43
2018-03-16T20:09:48.000Z,16.13
2018-03-16T20:12:14.243Z,20.73
2018-03-16T20:14:40.842Z,14.03
2018-03-16T20:17:07.333Z,16.63
2018-03-16T20:19:33.684Z,14.37
2018-03-16T20:22:00.052Z,16.23
2018-03-16T20:24:26.341Z,16.53
2018-03-16T20:26:52.605Z,16.10
2018-03-16T20:29:18.841Z,18.60
2018-03-16T20:31:45.148Z,18.40
2018-03-16T20:34:11.380Z,16.37
2018-03-16T20:36:37.648Z,18.07
2018-03-16T20:39:03.965Z,15.87
2018-03-16T20:41:30.226Z,15.60
2018-03-16T20:43:56.473Z,15.13
2018-03-16T20:46:22.732Z,14.37
2018-03-16T20:48:50.274Z,16.67
2018-03-16T20:51:16.574Z,15.90
2018-03-16T20:53:42.805Z,17.20
2018-03-16T20:56:09.071Z,14.30
2018-03-16T20:58:35.324Z,16.43
2018-03-16T21:01:01.565Z,14.87
2018-03-16T21:03:27.821Z,17.00
2018-03-16T21:08:26.914Z,14.43
2018-03-16T21:10:53.159Z,11.50
2018-03-16T21:13:19.424Z,15.57
2018-03-16T21:15:45.704Z,12.87
2018-03-16T21:18:12.225Z,14.97
2018-03-16T21:20:39.266Z,14.30
2018-03-16T21:23:05.593Z,15.87
2018-03-16T21:25:31.827Z,15.93
2018-03-16T21:27:58.334Z,15.30
2018-03-16T21:30:24.600Z,13.93
2018-03-16T21:32:51.263Z,12.97
2018-03-16T21:35:17.549Z,14.63
2018-03-16T21:37:43.803Z,15.67
2018-03-16T21:40:10.288Z,13.73
2018-03-16T21:42:36.583Z,14.43
2018-03-16T21:45:02.940Z,18.10
2018-03-16T21:47:29.333Z,14.73
2018-03-16T21:49:55.604Z,14.67
2018-03-16T21:52:21.876Z,13.90
2018-03-16T21:54:48.921Z,17.20
2018-03-16T21:57:15.568Z,15.40
2018-03-16T21:59:41.852Z,14.70
2018-03-16T22:02:08.104Z,13.17
2018-03-16T22:04:34.373Z,12.57
2018-03-16T22:07:00.628Z,12.97
2018-03-16T22:09:27.120Z,12.60
2018-03-16T22:11:53.356Z,15.80
2018-03-16T22:14:19.588Z,15.97
2018-03-16T22:16:45.844Z,32.30
2018-03-16T22:19:12.156Z,17.40
2018-03-16T22:21:38.629Z,13.50
2018-03-16T22:24:04.989Z,14.63
2018-03-16T22:26:32.093Z,12.87
2018-03-16T22:28:58.365Z,13.00
2018-03-16T22:31:24.601Z,15.97
2018-03-16T22:33:50.856Z,14.20
2018-03-16T22:36:17.104Z,13.50
2018-03-16T22:38:43.435Z,16.90
2018-03-16T22:41:09.708Z,11.30
2018-03-16T22:43:35.941Z,12.57
2018-03-16T22:46:03.302Z,12.50
2018-03-16T22:48:29.648Z,13.13
2018-03-16T22:50:56.164Z,11.97
2018-03-16T22:53:22.448Z,11.33
2018-03-16T22:55:48.672Z,11.10
2018-03-16T22:58:14.949Z,11.97
2018-03-16T23:00:41.710Z,12.70
2018-03-16T23:03:08.081Z,13.50
2018-03-16T23:05:34.652Z,10.93
2018-03-16T23:08:01.199Z,12.33
2018-03-16T23:10:27.491Z,11.90
2018-03-16T23:12:53.887Z,11.97
2018-03-16T23:15:20.144Z,10.70
2018-03-16T23:17:46.432Z,13.17
2018-03-16T23:20:12.685Z,12.27
2018-03-16T23:22:40.329Z,14.10
2018-03-16T23:25:06.591Z,12.97
2018-03-16T23:27:32.939Z,12.67
2018-03-16T23:29:59.276Z,12.10
2018-03-16T23:32:25.720Z,10.90
2018-03-16T23:34:51.992Z,9.57
2018-03-16T23:37:18.351Z,11.57
2018-03-16T23:39:44.639Z,13.17
2018-03-16T23:42:10.899Z,10.40
2018-03-16T23:44:37.559Z,12.90
2018-03-16T23:47:03.950Z,8.53
2018-03-16T23:49:30.221Z,9.83
2018-03-16T23:51:56.673Z,8.47
2018-03-16T23:54:22.956Z,8.73
2018-03-16T23:56:49.522Z,9.80
2018-03-16T23:59:15.825Z,11.17
